createdAt,value
2022-10-17T00:00:03.018Z,54.32
2022-10-17T00:05:07.811Z,54.74
2022-10-17T00:10:11.901Z,54.39
2022-10-17T00:15:20.326Z,54.67
2022-10-17T00:20:24.517Z,54.00
2022-10-17T00:25:28.676Z,53.86
2022-10-17T00:30:34.863Z,54.13
2022-10-17T00:35:38.965Z,54.44
2022-10-17T00:40:43.013Z,53.81
2022-10-17T00:45:48.541Z,53.41
2022-10-17T00:50:53.083Z,53.33
2022-10-17T00:55:56.440Z,53.58
2022-10-17T01:01:02.373Z,53.97
2022-10-17T01:06:06.792Z,54.35
2022-10-17T01:11:21.939Z,54.57
2022-10-17T01:16:38.979Z,54.66
2022-10-17T01:21:52.714Z,54.56
2022-10-17T01:27:25.304Z,54.14
2022-10-17T01:32:36.271Z,54.45
2022-10-17T01:37:46.267Z,53.92
2022-10-17T01:42:58.566Z,54.09
2022-10-17T01:48:09.308Z,54.63
2022-10-17T01:53:17.967Z,53.86
2022-10-17T01:58:28.825Z,55.21
2022-10-17T02:03:35.146Z,54.61
2022-10-17T02:08:44.700Z,54.38
2022-10-17T02:19:39.918Z,55.69
2022-10-17T02:24:51.247Z,55.28
2022-10-17T02:30:01.093Z,55.06
2022-10-17T02:35:12.298Z,55.33
2022-10-17T02:40:20.750Z,56.04
2022-10-17T02:45:28.462Z,55.32
2022-10-17T02:50:44.743Z,55.20
2022-10-17T02:55:54.905Z,55.49
2022-10-17T03:00:59.796Z,55.66
2022-10-17T03:06:05.011Z,57.06
2022-10-17T03:11:09.113Z,54.99
2022-10-17T03:16:13.134Z,55.80
2022-10-17T03:21:18.883Z,56.26
2022-10-17T03:26:23.052Z,55.48
2022-10-17T03:31:27.193Z,55.91
2022-10-17T03:36:32.695Z,55.95
2022-10-17T03:41:37.170Z,55.90
2022-10-17T03:46:41.228Z,55.68
2022-10-17T03:51:46.718Z,55.47
2022-10-17T03:56:50.083Z,55.61
2022-10-17T04:01:54.166Z,54.57
2022-10-17T04:06:59.653Z,55.57
2022-10-17T04:12:03.854Z,54.68
2022-10-17T04:17:07.955Z,54.99
2022-10-17T04:22:13.001Z,54.83
2022-10-17T04:27:17.139Z,54.50
2022-10-17T04:32:20.498Z,53.96
2022-10-17T04:37:25.947Z,53.75
2022-10-17T04:42:30.518Z,53.97
2022-10-17T04:47:34.817Z,54.17
2022-10-17T04:52:39.535Z,54.81
2022-10-17T04:57:43.522Z,54.76
2022-10-17T05:02:46.819Z,55.02
2022-10-17T05:07:52.295Z,55.67
2022-10-17T05:12:55.903Z,56.16
2022-10-17T05:18:00.397Z,55.12
2022-10-17T05:23:05.235Z,56.54
2022-10-17T05:28:09.278Z,55.96
2022-10-17T05:33:12.638Z,55.84
2022-10-17T05:38:18.110Z,55.47
2022-10-17T05:43:21.508Z,55.48
2022-10-17T05:48:26.427Z,54.34
2022-10-17T05:53:33.224Z,54.28
2022-10-17T05:58:49.747Z,53.98
2022-10-17T06:03:54.423Z,54.68
2022-10-17T06:08:59.907Z,54.50
2022-10-17T06:14:03.398Z,54.37
2022-10-17T06:19:07.506Z,55.12
2022-10-17T06:24:12.306Z,54.21
2022-10-17T06:29:16.384Z,54.65
2022-10-17T06:34:19.887Z,53.58
2022-10-17T06:39:27.724Z,52.54
2022-10-17T06:44:32.085Z,52.37
2022-10-17T06:49:36.434Z,52.37
2022-10-17T06:54:41.175Z,51.54
2022-10-17T06:59:45.279Z,51.78
2022-10-17T07:04:48.641Z,51.75
2022-10-17T07:09:54.958Z,51.89
2022-10-17T07:14:58.344Z,51.69
2022-10-17T07:20:02.355Z,51.77
2022-10-17T07:25:10.807Z,51.06
2022-10-17T07:30:16.414Z,50.49
2022-10-17T07:35:21.087Z,51.01
2022-10-17T07:40:26.919Z,50.72
2022-10-17T07:45:31.148Z,50.79
2022-10-17T07:50:35.285Z,50.76
2022-10-17T07:55:40.537Z,50.49
2022-10-17T08:00:44.764Z,50.67
2022-10-17T08:05:48.894Z,50.21
2022-10-17T08:10:55.020Z,50.47
2022-10-17T08:16:01.398Z,50.55
2022-10-17T08:21:07.097Z,50.91
2022-10-17T08:26:14.265Z,50.61
2022-10-17T08:31:20.128Z,50.19
2022-10-17T08:36:24.198Z,50.05
2022-10-17T08:41:45.758Z,49.73
2022-10-17T08:46:53.894Z,50.88
2022-10-17T08:52:04.572Z,52.34
2022-10-17T08:57:15.538Z,53.93
2022-10-17T09:02:41.392Z,55.00
2022-10-17T09:07:55.279Z,55.24
2022-10-17T09:13:11.357Z,55.24
2022-10-17T09:18:22.435Z,55.50
2022-10-17T09:23:29.289Z,55.30
2022-10-17T09:28:36.876Z,55.81
2022-10-17T09:33:53.718Z,55.65
2022-10-17T09:39:00.408Z,55.17
2022-10-17T09:44:16.357Z,56.20
2022-10-17T09:49:27.896Z,56.00
2022-10-17T09:54:42.026Z,56.27
2022-10-17T09:59:50.321Z,56.33
2022-10-17T10:05:07.393Z,57.31
2022-10-17T10:10:27.914Z,57.38
2022-10-17T10:15:37.954Z,57.29
2022-10-17T10:20:46.770Z,58.52
2022-10-17T10:25:58.237Z,58.25
2022-10-17T10:31:06.803Z,58.91
2022-10-17T10:36:12.252Z,58.21
2022-10-17T10:41:16.291Z,58.76
2022-10-17T10:46:23.462Z,58.77
2022-10-17T10:51:32.539Z,58.86
2022-10-17T10:56:40.081Z,58.75
2022-10-17T11:01:51.023Z,59.96
2022-10-17T11:07:01.418Z,59.65
2022-10-17T11:12:12.809Z,59.53
2022-10-17T11:17:32.492Z,60.18
2022-10-17T11:22:43.950Z,59.47
2022-10-17T11:27:48.113Z,60.32
2022-10-17T11:32:57.254Z,60.45
2022-10-17T11:38:10.432Z,62.22
2022-10-17T11:43:19.067Z,61.26
2022-10-17T11:48:28.601Z,62.82
2022-10-17T11:53:42.736Z,61.83
2022-10-17T11:58:55.241Z,61.64
2022-10-17T12:04:18.264Z,62.51
2022-10-17T12:09:31.410Z,61.92
2022-10-17T12:14:44.106Z,62.54
2022-10-17T12:19:49.673Z,63.10
2022-10-17T12:25:02.185Z,63.24
2022-10-17T12:30:17.796Z,62.08
2022-10-17T12:35:25.926Z,62.44
2022-10-17T12:40:56.743Z,63.27
2022-10-17T12:46:01.857Z,62.85
2022-10-17T12:56:38.584Z,63.48
2022-10-17T13:01:47.458Z,63.33
2022-10-17T13:06:57.182Z,63.40
2022-10-17T13:12:03.258Z,63.19
2022-10-17T13:17:08.193Z,63.42
2022-10-17T13:22:14.357Z,63.57
2022-10-17T13:27:27.002Z,65.02
2022-10-17T13:32:38.627Z,64.66
2022-10-17T13:37:45.063Z,65.57
2022-10-17T13:42:49.182Z,65.47
2022-10-17T13:47:52.655Z,65.74
2022-10-17T13:53:20.915Z,68.80
2022-10-17T13:58:24.634Z,67.17
2022-10-17T14:03:47.054Z,67.43
2022-10-17T14:08:57.407Z,66.59
2022-10-17T14:14:02.358Z,67.92
2022-10-17T14:19:07.218Z,67.52
2022-10-17T14:24:23.804Z,67.53
2022-10-17T14:29:30.358Z,69.95
2022-10-17T14:34:36.996Z,68.59
2022-10-17T14:39:41.836Z,69.69
2022-10-17T14:44:50.841Z,69.00
2022-10-17T14:50:05.497Z,70.68
2022-10-17T14:55:24.389Z,70.96
2022-10-17T15:00:28.024Z,68.90
2022-10-17T15:05:31.672Z,69.00
2022-10-17T15:10:41.891Z,69.39
2022-10-17T15:15:46.119Z,68.98
2022-10-17T15:20:55.403Z,70.10
2022-10-17T15:26:18.718Z,70.25
2022-10-17T15:31:24.078Z,69.75
2022-10-17T15:36:29.306Z,69.40
2022-10-17T15:41:34.983Z,70.19
2022-10-17T15:46:42.132Z,70.68
2022-10-17T15:51:45.689Z,69.70
2022-10-17T15:56:54.495Z,69.86
2022-10-17T16:01:57.956Z,69.33
2022-10-17T16:07:01.301Z,69.64
2022-10-17T16:12:07.483Z,69.03
2022-10-17T16:17:14.170Z,69.25
2022-10-17T16:22:22.147Z,68.94
2022-10-17T16:27:27.401Z,68.88
2022-10-17T16:32:31.237Z,68.08
2022-10-17T16:37:35.886Z,68.05
2022-10-17T16:42:40.742Z,68.57
2022-10-17T16:47:44.301Z,67.82
2022-10-17T16:52:47.803Z,67.60
2022-10-17T16:57:52.578Z,68.45
2022-10-17T17:02:55.682Z,69.49
2022-10-17T17:07:59.520Z,68.68
2022-10-17T17:13:04.646Z,68.58
2022-10-17T17:18:08.347Z,68.65
2022-10-17T17:23:15.719Z,68.47
2022-10-17T17:28:22.669Z,68.83
2022-10-17T17:33:28.429Z,68.69
2022-10-17T17:38:33.378Z,68.23
2022-10-17T17:43:38.558Z,69.36
2022-10-17T17:48:43.687Z,69.51
2022-10-17T17:53:47.434Z,69.59
2022-10-17T17:58:58.517Z,69.12
2022-10-17T18:04:03.709Z,70.41
2022-10-17T18:09:09.120Z,70.27
2022-10-17T18:14:14.191Z,70.48
2022-10-17T18:19:19.059Z,70.09
2022-10-17T18:24:22.843Z,71.62
2022-10-17T18:29:27.859Z,71.32
2022-10-17T18:34:31.414Z,71.03
2022-10-17T18:39:35.673Z,71.52
2022-10-17T18:44:40.571Z,71.37
2022-10-17T18:49:45.222Z,71.48
2022-10-17T18:54:48.593Z,72.32
2022-10-17T18:59:54.073Z,71.35
2022-10-17T19:04:57.431Z,71.67
2022-10-17T19:10:01.542Z,72.41
2022-10-17T19:15:10.695Z,72.38
2022-10-17T19:20:14.067Z,72.47
2022-10-17T19:25:17.463Z,72.80
2022-10-17T19:30:22.872Z,72.83
2022-10-17T19:35:26.316Z,72.66
2022-10-17T19:40:30.038Z,73.20
2022-10-17T19:45:34.784Z,73.34
2022-10-17T19:50:41.255Z,73.05
2022-10-17T19:55:45.066Z,73.43
2022-10-17T20:00:50.677Z,74.27
2022-10-17T20:05:54.051Z,73.38
2022-10-17T20:10:57.421Z,74.10
2022-10-17T20:16:05.337Z,74.16
2022-10-17T20:21:11.885Z,73.77
2022-10-17T20:31:44.352Z,74.13
2022-10-17T20:36:49.185Z,73.82
2022-10-17T20:41:52.226Z,74.09
2022-10-17T20:47:02.360Z,73.63
2022-10-17T20:52:07.094Z,73.50
2022-10-17T20:57:10.427Z,73.93
2022-10-17T21:02:15.383Z,73.71
2022-10-17T21:07:18.457Z,75.22
2022-10-17T21:12:31.195Z,73.69
2022-10-17T21:17:41.995Z,74.89
2022-10-17T21:22:45.348Z,73.55
2022-10-17T21:27:48.722Z,73.96
2022-10-17T21:32:56.166Z,74.18
2022-10-17T21:37:59.687Z,74.36
2022-10-17T21:43:03.040Z,74.54
2022-10-17T21:48:12.497Z,74.76
2022-10-17T21:53:16.178Z,75.43
2022-10-17T21:58:20.264Z,74.91
2022-10-17T22:03:25.014Z,74.86
2022-10-17T22:08:29.349Z,74.83
2022-10-17T22:13:32.785Z,74.51
2022-10-17T22:18:37.875Z,73.91
2022-10-17T22:23:41.576Z,74.03
2022-10-17T22:28:45.671Z,74.92
2022-10-17T22:33:50.950Z,74.87
2022-10-17T22:38:54.409Z,74.55
2022-10-17T22:43:57.861Z,74.02
2022-10-17T22:49:03.134Z,73.57
2022-10-17T22:54:06.636Z,73.73
2022-10-17T22:59:10.758Z,73.48
2022-10-17T23:04:15.509Z,72.59
2022-10-17T23:09:19.573Z,72.51
2022-10-17T23:14:22.949Z,72.53
2022-10-17T23:19:27.773Z,72.34
2022-10-17T23:24:31.169Z,71.80
2022-10-17T23:29:35.690Z,71.34
2022-10-17T23:34:40.422Z,71.36
2022-10-17T23:39:43.771Z,72.08
2022-10-17T23:44:47.102Z,71.63
2022-10-17T23:49:51.906Z,71.07
2022-10-17T23:54:55.334Z,71.07
2022-10-17T23:59:59.377Z,71.14
